Time;durP1;ratioP1;P1;durP2;ratioP2;P2;SDS_P1;SDS_P2;PMS_P1;PMS_P2;Temp;Humidity;BMP_temperature;BMP_pressure;BME280_temperature;BME280_humidity;BME280_pressure;Samples;Min_cycle;Max_cycle;Signal;HPM_P1;HPM_P2
2023/06/01 00:02:26;;;;;;;11.37;7.20;;;;;;;17.30;68.73;102153.94;5152402;28;20418;-83
2023/06/01 00:04:57;;;;;;;9.33;7.43;;;;;;;17.66;67.98;102189.44;5151973;29;20030;-82
2023/06/01 00:07:29;;;;;;;11.60;7.10;;;;;;;17.46;67.28;102137.00;5160763;28;20026;-82
2023/06/01 00:10:01;;;;;;;14.00;7.33;;;;;;;17.52;68.21;102177.16;5170236;28;20033;-82
2023/06/01 00:12:32;;;;;;;10.17;7.07;;;;;;;16.84;70.62;102121.66;5255556;28;20044;-82
2023/06/01 00:15:04;;;;;;;14.10;7.93;;;;;;;17.05;69.94;102137.06;5203755;28;20063;-82
2023/06/01 00:17:35;;;;;;;12.40;7.37;;;;;;;17.12;70.66;102158.69;5205724;28;20197;-81
2023/06/01 00:20:08;;;;;;;9.83;7.57;;;;;;;17.01;71.40;102151.44;5171840;28;20116;-82
2023/06/01 00:22:39;;;;;;;10.97;6.77;;;;;;;17.06;70.05;102130.81;5255514;28;20015;-82
2023/06/01 00:25:10;;;;;;;9.57;6.70;;;;;;;17.34;69.97;102168.69;5154074;28;20386;-82
2023/06/01 00:27:42;;;;;;;12.83;7.63;;;;;;;17.13;69.90;102140.06;5171309;28;20031;-82
2023/06/01 00:30:13;;;;;;;12.93;8.30;;;;;;;16.72;72.39;102133.06;5171617;28;20027;-82
2023/06/01 00:32:45;;;;;;;11.60;7.57;;;;;;;16.88;71.12;102152.25;5186416;28;20027;-82
2023/06/01 00:35:16;;;;;;;14.80;8.90;;;;;;;16.89;71.44;102156.59;5256030;28;20075;-83
2023/06/01 00:37:47;;;;;;;11.00;6.80;;;;;;;17.03;69.72;102141.59;5188559;28;20054;-82
2023/06/01 00:40:19;;;;;;;13.83;7.93;;;;;;;16.48;72.44;102136.34;5170666;28;20031;-83
2023/06/01 00:42:50;;;;;;;12.63;8.00;;;;;;;16.99;70.71;102174.50;5171990;28;20027;-84
2023/06/01 00:45:22;;;;;;;11.73;8.03;;;;;;;16.52;72.27;102132.53;5171861;28;20084;-82
2023/06/01 00:47:53;;;;;;;13.07;8.47;;;;;;;16.59;71.62;102136.50;5171199;28;20030;-83
2023/06/01 00:50:25;;;;;;;11.73;8.20;;;;;;;16.46;71.94;102131.13;5260321;28;20032;-82
2023/06/01 00:52:57;;;;;;;12.37;7.77;;;;;;;16.71;71.78;102149.84;5277428;28;20675;-83
2023/06/01 00:55:29;;;;;;;15.13;8.70;;;;;;;16.55;71.34;102142.91;5276380;28;20028;-84
2023/06/01 00:58:01;;;;;;;12.97;8.13;;;;;;;16.78;69.71;102145.88;5277160;28;20051;-84
2023/06/01 01:00:33;;;;;;;13.53;9.20;;;;;;;16.40;71.12;102121.84;5276797;28;20024;-84
2023/06/01 01:03:08;;;;;;;12.97;8.60;;;;;;;16.52;71.02;102162.50;5187836;28;20015;-84
2023/06/01 01:05:41;;;;;;;13.80;8.77;;;;;;;16.39;72.17;102159.78;5171193;28;20497;-84
2023/06/01 01:08:36;;;;;;;15.03;9.07;;;;;;;16.51;70.93;102159.94;5170813;28;20030;-83
2023/06/01 01:11:15;;;;;;;17.27;9.10;;;;;;;16.08;72.97;102133.50;5157037;28;20030;-84
2023/06/01 01:14:01;;;;;;;14.97;9.33;;;;;;;16.64;71.46;102197.03;5171520;28;20118;-83
2023/06/01 01:16:45;;;;;;;13.23;9.03;;;;;;;16.38;71.76;102160.72;5170420;28;20105;-84
2023/06/01 01:19:47;;;;;;;16.55;9.48;;;;;;;16.38;71.14;102144.88;5171542;28;20023;-84
2023/06/01 01:22:19;;;;;;;14.20;8.77;;;;;;;16.21;73.07;102190.88;5171432;28;20023;-82
2023/06/01 01:25:28;;;;;;;13.37;9.47;;;;;;;16.52;71.54;102194.22;5192119;28;20035;-82
2023/06/01 01:28:07;;;;;;;13.00;8.80;;;;;;;15.78;74.72;102133.59;5150834;29;20027;-82
2023/06/01 01:30:42;;;;;;;14.10;8.60;;;;;;;15.92;73.24;102138.88;5133897;28;20383;-81
2023/06/01 01:33:14;;;;;;;16.45;9.50;;;;;;;15.77;75.50;102182.94;5133410;28;20042;-81
2023/06/01 01:35:45;;;;;;;15.50;10.30;;;;;;;15.63;74.52;102146.78;5150758;28;20024;-81
2023/06/01 01:38:17;;;;;;;15.60;9.80;;;;;;;15.67;74.13;102148.31;5150876;28;20038;-82
2023/06/01 01:40:52;;;;;;;15.60;10.83;;;;;;;15.46;75.12;102137.25;5157526;28;20784;-82
2023/06/01 01:43:24;;;;;;;15.40;11.07;;;;;;;15.38;75.59;102150.91;5276451;28;20055;-82
2023/06/01 01:46:17;;;;;;;14.20;9.90;;;;;;;15.76;74.38;102165.38;5276082;28;20064;-82
2023/06/01 01:48:57;;;;;;;17.33;10.83;;;;;;;15.64;75.88;102203.94;5276765;28;20031;-83
2023/06/01 01:51:37;;;;;;;15.97;10.10;;;;;;;15.63;74.92;102169.69;5276386;28;20029;-82
2023/06/01 01:54:10;;;;;;;17.07;12.43;;;;;;;15.36;76.92;102192.38;5276677;28;20468;-82
2023/06/01 01:56:44;;;;;;;21.40;11.63;;;;;;;15.23;76.15;102157.94;5190735;28;20020;-82
2023/06/01 01:59:15;;;;;;;16.13;10.90;;;;;;;15.26;77.33;102197.34;5276682;28;20107;-82
2023/06/01 02:01:47;;;;;;;16.03;11.90;;;;;;;15.34;76.01;102181.91;5213324;28;20114;-82
2023/06/01 02:04:18;;;;;;;14.77;11.37;;;;;;;14.90;77.83;102162.47;5171022;28;20027;-83
2023/06/01 02:06:50;;;;;;;16.80;13.20;;;;;;;15.03;78.16;102167.03;5170417;28;20425;-83
2023/06/01 02:09:21;;;;;;;16.13;12.60;;;;;;;15.19;76.79;102183.66;5197340;28;20024;-83
2023/06/01 02:11:53;;;;;;;18.00;12.17;;;;;;;14.95;77.45;102156.91;5274647;28;20116;-82
2023/06/01 02:14:24;;;;;;;18.40;11.57;;;;;;;15.17;75.95;102153.88;5191021;28;20034;-81
2023/06/01 02:16:55;;;;;;;17.00;12.80;;;;;;;14.93;77.13;102150.88;5249319;28;20367;-81
2023/06/01 02:19:27;;;;;;;15.33;12.40;;;;;;;15.16;77.04;102189.13;5171206;28;20077;-83
2023/06/01 02:21:59;;;;;;;18.97;12.57;;;;;;;15.22;76.94;102196.66;5174049;28;20027;-83
2023/06/01 02:24:30;;;;;;;22.27;13.57;;;;;;;14.65;77.51;102145.34;5173435;28;20094;-83
2023/06/01 02:27:02;;;;;;;16.33;12.97;;;;;;;14.77;77.41;102157.00;5174059;28;20390;-83
2023/06/01 02:29:33;;;;;;;20.53;13.53;;;;;;;15.02;76.25;102170.59;5174387;28;20027;-83
2023/06/01 02:32:05;;;;;;;18.27;12.70;;;;;;;14.58;77.58;102138.72;5174168;28;20478;-84
2023/06/01 02:34:36;;;;;;;17.73;12.10;;;;;;;14.67;77.48;102167.22;5173719;28;20418;-84
2023/06/01 02:37:08;;;;;;;17.10;11.83;;;;;;;14.20;79.06;102148.69;5174193;28;20030;-82
2023/06/01 02:39:39;;;;;;;15.53;11.87;;;;;;;14.30;80.25;102159.56;5173060;28;20034;-82
2023/06/01 02:42:11;;;;;;;16.20;11.83;;;;;;;14.63;79.14;102197.31;5173200;28;20054;-82
2023/06/01 02:44:42;;;;;;;12.77;11.27;;;;;;;14.30;79.00;102150.81;5173863;28;20033;-81
2023/06/01 02:47:13;;;;;;;17.63;11.50;;;;;;;14.27;79.29;102167.66;5156569;28;20114;-82
2023/06/01 02:49:45;;;;;;;17.37;11.73;;;;;;;14.14;79.26;102154.28;5156741;28;20037;-82
2023/06/01 02:52:16;;;;;;;13.20;10.53;;;;;;;14.21;80.30;102176.72;5173197;28;20149;-82
2023/06/01 02:54:48;;;;;;;16.93;11.33;;;;;;;14.58;78.29;102173.84;5172364;28;20043;-83
2023/06/01 02:57:20;;;;;;;16.63;11.37;;;;;;;14.12;79.78;102127.19;5156611;28;20045;-83
2023/06/01 02:59:51;;;;;;;16.53;10.70;;;;;;;14.41;78.41;102156.34;5173261;28;20037;-83
2023/06/01 03:02:22;;;;;;;15.27;10.10;;;;;;;14.47;77.75;102153.34;5155621;28;20046;-83
2023/06/01 03:04:54;;;;;;;16.67;10.90;;;;;;;14.64;77.21;102168.22;5173581;28;20488;-85
2023/06/01 03:07:26;;;;;;;15.47;10.73;;;;;;;14.63;77.34;102171.81;5162268;28;20042;-85
2023/06/01 03:09:57;;;;;;;14.47;9.67;;;;;;;14.61;77.78;102172.81;5166942;28;20031;-84
2023/06/01 03:12:28;;;;;;;17.10;10.50;;;;;;;14.14;78.92;102138.47;5155350;28;20088;-82
2023/06/01 03:14:59;;;;;;;14.53;9.60;;;;;;;14.40;77.09;102144.94;5173836;28;20109;-85
2023/06/01 03:17:32;;;;;;;14.73;10.80;;;;;;;14.43;78.12;102165.03;5155910;28;20023;-85
2023/06/01 03:20:14;;;;;;;16.73;10.17;;;;;;;14.74;75.59;102159.81;5173227;28;20409;-85
2023/06/01 03:22:46;;;;;;;13.10;9.30;;;;;;;14.36;77.86;102164.53;5173351;28;20023;-84
2023/06/01 03:25:17;;;;;;;15.27;10.07;;;;;;;14.23;79.46;102169.59;5154991;28;20058;-85
2023/06/01 03:27:49;;;;;;;14.97;9.33;;;;;;;14.64;76.45;102165.59;5173598;28;20108;-86
2023/06/01 03:30:21;;;;;;;14.10;9.27;;;;;;;14.25;78.31;102175.63;5156329;28;20038;-84
2023/06/01 03:32:52;;;;;;;13.50;9.20;;;;;;;14.39;78.18;102174.03;5172106;28;20023;-84
2023/06/01 03:35:24;;;;;;;16.10;9.53;;;;;;;13.93;80.20;102138.69;5173489;28;20023;-85
2023/06/01 03:37:55;;;;;;;11.90;9.27;;;;;;;14.41;77.08;102166.88;5172983;28;20027;-85
2023/06/01 03:40:26;;;;;;;13.73;8.37;;;;;;;14.19;78.35;102180.41;5172241;28;20027;-85
2023/06/01 03:42:57;;;;;;;11.53;8.23;;;;;;;13.92;79.58;102165.97;5173432;28;20023;-84
2023/06/01 03:45:29;;;;;;;13.20;8.67;;;;;;;13.76;80.96;102160.66;5172397;28;20058;-84
2023/06/01 03:48:00;;;;;;;10.80;8.00;;;;;;;13.87;80.05;102158.31;5173741;28;20031;-83
2023/06/01 03:50:32;;;;;;;12.13;8.40;;;;;;;13.75;81.59;102165.06;5154896;28;20030;-82
2023/06/01 03:53:04;;;;;;;11.77;8.20;;;;;;;13.78;80.26;102156.16;5167094;28;20035;-82
2023/06/01 03:55:35;;;;;;;11.10;8.30;;;;;;;13.67;81.64;102169.88;5170531;28;20031;-82
2023/06/01 03:58:07;;;;;;;17.17;9.30;;;;;;;13.91;80.46;102169.56;5155398;28;20046;-82
2023/06/01 04:00:39;;;;;;;13.10;9.47;;;;;;;13.70;80.79;102161.81;5170577;28;20059;-81
2023/06/01 04:03:11;;;;;;;12.27;8.23;;;;;;;13.83;81.01;102193.63;5200141;28;20032;-83
2023/06/01 04:05:49;;;;;;;12.13;7.93;;;;;;;13.90;79.84;102173.09;5278274;28;20025;-84
2023/06/01 04:08:34;;;;;;;9.57;7.33;;;;;;;14.14;79.09;102178.84;5232938;28;20050;-84
2023/06/01 04:11:05;;;;;;;10.68;7.93;;;;;;;13.81;80.80;102206.03;5163682;28;20039;-84
2023/06/01 04:13:36;;;;;;;12.97;8.20;;;;;;;13.65;81.95;102184.91;5152396;28;20046;-84
2023/06/01 04:16:08;;;;;;;11.87;7.60;;;;;;;13.95;79.86;102186.00;5152495;29;20027;-84
2023/06/01 04:18:40;;;;;;;12.10;8.17;;;;;;;13.78;80.36;102164.94;5160638;28;20359;-84
2023/06/01 04:21:11;;;;;;;14.37;8.07;;;;;;;13.90;79.14;102163.44;5172531;28;20027;-84
2023/06/01 04:23:43;;;;;;;12.20;7.90;;;;;;;13.86;80.57;102185.56;5172525;28;20027;-85
2023/06/01 04:26:15;;;;;;;13.77;9.40;;;;;;;13.89;80.63;102192.47;5171042;28;20035;-84
2023/06/01 04:28:48;;;;;;;11.07;7.83;;;;;;;13.58;81.20;102149.31;5172405;28;20635;-84
2023/06/01 04:31:20;;;;;;;11.77;8.23;;;;;;;13.89;79.78;102192.47;5172404;28;20050;-84
2023/06/01 04:33:52;;;;;;;12.03;7.77;;;;;;;13.95;79.23;102171.06;5154777;28;20118;-84
2023/06/01 04:36:24;;;;;;;12.03;7.70;;;;;;;14.07;79.26;102180.09;5154961;28;20755;-84
2023/06/01 04:38:57;;;;;;;11.20;8.67;;;;;;;13.73;81.80;102195.91;5154740;28;20035;-85
2023/06/01 04:41:30;;;;;;;11.93;7.43;;;;;;;14.07;79.65;102192.44;5171985;28;20098;-84
2023/06/01 04:44:05;;;;;;;13.13;7.68;;;;;;;13.94;79.33;102173.78;5153308;28;20145;-86
2023/06/01 04:46:39;;;;;;;7.80;7.00;;;;;;;14.15;79.54;102208.69;5154694;28;20037;-87
2023/06/01 04:49:11;;;;;;;16.77;8.18;;;;;;;13.94;80.61;102201.00;5170774;28;20501;-90
2023/06/01 04:51:44;;;;;;;13.47;7.97;;;;;;;14.26;78.17;102203.69;5255307;28;20041;-89
2023/06/01 04:54:18;;;;;;;13.67;7.70;;;;;;;14.31;77.86;102200.81;5169950;28;20030;-86
2023/06/01 04:56:51;;;;;;;15.02;8.57;;;;;;;14.31;76.71;102192.03;5171986;28;20041;-84
2023/06/01 04:59:22;;;;;;;14.43;9.07;;;;;;;14.17;76.68;102176.97;5171937;28;20031;-81
2023/06/01 05:01:53;;;;;;;13.97;9.10;;;;;;;14.26;77.47;102201.03;5153927;28;20030;-82
2023/06/01 05:04:25;;;;;;;13.40;8.57;;;;;;;14.62;75.79;102217.59;5174764;28;20737;-82
2023/06/01 05:06:58;;;;;;;14.97;8.63;;;;;;;14.41;76.25;102206.44;5159545;28;20027;-83
2023/06/01 05:09:29;;;;;;;14.03;8.70;;;;;;;14.26;76.39;102172.06;5153344;28;20395;-84
2023/06/01 05:12:01;;;;;;;15.80;9.27;;;;;;;14.44;74.62;102171.97;5169324;28;20058;-83
2023/06/01 05:14:33;;;;;;;15.03;8.70;;;;;;;14.43;74.97;102170.31;5134091;29;20027;-83
2023/06/01 05:17:07;;;;;;;14.07;8.80;;;;;;;14.44;76.07;102186.94;5167266;28;20513;-83
2023/06/01 05:19:39;;;;;;;;;;;;;;;15.23;71.59;102216.88;5153947;28;20068;-83
2023/06/01 05:22:11;;;;;;;12.93;9.43;;;;;;;14.28;75.51;102185.16;5170939;28;19918;-84
2023/06/01 05:24:43;;;;;;;14.27;8.40;;;;;;;14.45;75.25;102183.38;5153327;28;20058;-83
2023/06/01 05:27:16;;;;;;;10.23;8.77;;;;;;;14.64;74.68;102206.94;5171180;28;20050;-82
2023/06/01 05:29:53;;;;;;;17.00;9.33;;;;;;;14.81;74.12;102208.66;5171684;28;20022;-86
2023/06/01 05:32:24;;;;;;;15.47;9.50;;;;;;;14.49;75.22;102203.34;5171644;28;20027;-86
2023/06/01 05:34:55;;;;;;;15.50;9.77;;;;;;;14.64;73.61;102177.94;5170385;28;20321;-83
2023/06/01 05:37:26;;;;;;;16.17;10.17;;;;;;;14.68;73.05;102207.63;5170318;28;20105;-83
2023/06/01 05:39:58;;;;;;;13.90;10.33;;;;;;;14.62;74.69;102185.09;5158994;28;20053;-84
2023/06/01 05:42:29;;;;;;;14.13;9.17;;;;;;;14.64;73.68;102172.66;5150736;29;20036;-85
2023/06/01 05:45:01;;;;;;;14.67;9.37;;;;;;;14.79;72.70;102175.38;5167524;28;20034;-86
2023/06/01 05:47:32;;;;;;;13.77;8.77;;;;;;;14.76;73.09;102166.72;5162933;28;20486;-85
2023/06/01 05:50:04;;;;;;;13.57;9.73;;;;;;;14.49;74.78;102159.41;5148812;28;20022;-85
2023/06/01 05:52:42;;;;;;;14.67;9.63;;;;;;;14.70;73.89;102164.41;5150200;28;20027;-86
2023/06/01 05:55:16;;;;;;;12.37;9.80;;;;;;;14.82;72.95;102160.25;5157802;28;20121;-83
2023/06/01 05:57:48;;;;;;;12.00;8.43;;;;;;;14.74;72.71;102157.16;5165767;28;20027;-83
2023/06/01 06:00:23;;;;;;;12.43;9.37;;;;;;;14.95;71.55;102176.25;5159767;28;20033;-83
2023/06/01 06:02:54;;;;;;;14.23;8.87;;;;;;;14.65;72.85;102171.72;5185955;28;20121;-80
2023/06/01 06:05:26;;;;;;;13.57;8.63;;;;;;;14.90;71.80;102199.38;5174681;28;20420;-79
2023/06/01 06:07:57;;;;;;;12.77;9.27;;;;;;;14.43;73.77;102167.66;5154469;28;20031;-82
2023/06/01 06:10:28;;;;;;;15.63;9.00;;;;;;;14.44;74.64;102169.34;5159963;28;20389;-83
2023/06/01 06:13:00;;;;;;;14.40;9.80;;;;;;;14.68;74.50;102208.47;5177929;28;20039;-82
2023/06/01 06:15:31;;;;;;;15.03;10.03;;;;;;;14.45;74.31;102186.84;5196326;28;20386;-82
2023/06/01 06:18:03;;;;;;;16.90;9.17;;;;;;;14.57;73.32;102185.34;5206491;28;20394;-83
2023/06/01 06:20:34;;;;;;;17.33;9.80;;;;;;;14.64;74.42;102215.69;5192725;28;20105;-83
2023/06/01 06:23:05;;;;;;;15.27;9.57;;;;;;;14.70;73.70;102209.22;5216105;28;20026;-82
2023/06/01 06:25:39;;;;;;;13.37;9.50;;;;;;;14.74;73.53;102216.03;5211290;28;20046;-82
2023/06/01 06:28:11;;;;;;;19.17;10.48;;;;;;;14.58;75.86;102194.09;5188286;28;20024;-82
2023/06/01 06:30:42;;;;;;;15.30;8.70;;;;;;;14.56;72.99;102165.19;5191932;28;20033;-82
2023/06/01 06:33:13;;;;;;;14.30;9.63;;;;;;;14.97;72.78;102231.53;5196502;28;20115;-83
2023/06/01 06:35:45;;;;;;;17.00;9.57;;;;;;;14.54;73.28;102192.56;5197144;28;20026;-84
2023/06/01 06:38:16;;;;;;;16.33;9.73;;;;;;;14.76;72.95;102185.19;5232269;28;20025;-83
2023/06/01 06:40:48;;;;;;;17.10;9.37;;;;;;;14.95;71.82;102163.06;5195238;28;20027;-83
2023/06/01 06:43:19;;;;;;;12.70;9.90;;;;;;;15.13;72.41;102184.03;5195120;28;20027;-83
2023/06/01 06:45:51;;;;;;;13.80;8.67;;;;;;;15.31;71.09;102168.03;5195769;28;20105;-83
2023/06/01 06:48:22;;;;;;;17.87;9.23;;;;;;;15.40;71.48;102185.97;5238665;28;20051;-83
2023/06/01 06:50:53;;;;;;;14.53;8.90;;;;;;;15.67;68.69;102177.38;5233961;28;20041;-82
2023/06/01 07:01:11;;;;;;;15.40;8.90;;;;;;;17.03;65.54;102231.59;5211843;28;20490;-83
2023/06/01 07:03:43;;;;;;;17.30;9.40;;;;;;;17.04;61.86;102226.19;5229357;28;20027;-83
2023/06/01 07:06:14;;;;;;;15.63;9.73;;;;;;;17.15;60.25;102200.84;5211726;28;20053;-83
2023/06/01 07:08:46;;;;;;;14.73;8.43;;;;;;;17.27;57.96;102192.06;5221332;28;20057;-83
2023/06/01 07:11:18;;;;;;;12.37;8.87;;;;;;;17.31;59.84;102195.38;5211398;28;20022;-83
2023/06/01 07:13:50;;;;;;;16.33;8.70;;;;;;;17.36;58.56;102198.56;5205428;28;20046;-83
2023/06/01 07:16:21;;;;;;;11.90;8.60;;;;;;;17.65;57.90;102216.91;5199690;28;20027;-82
2023/06/01 07:18:52;;;;;;;11.93;8.20;;;;;;;18.02;58.00;102216.16;5218676;28;20038;-82
2023/06/01 07:21:24;;;;;;;17.10;8.73;;;;;;;18.19;54.48;102186.78;5243132;28;20158;-81
2023/06/01 07:23:55;;;;;;;12.37;7.80;;;;;;;18.21;53.27;102168.97;5190174;28;20376;-81
2023/06/01 07:26:28;;;;;;;14.03;8.23;;;;;;;19.08;51.25;102185.66;5219564;28;20027;-81
2023/06/01 07:29:00;;;;;;;13.50;7.83;;;;;;;19.77;49.10;102194.69;5214071;28;20102;-81
2023/06/01 07:31:32;;;;;;;13.87;8.10;;;;;;;20.23;47.64;102186.69;5192698;28;20079;-82
2023/06/01 07:34:04;;;;;;;12.00;7.27;;;;;;;20.88;46.94;102201.88;5174947;28;20390;-82
2023/06/01 07:36:38;;;;;;;16.00;8.27;;;;;;;21.51;45.38;102216.25;5186640;28;20031;-82
2023/06/01 07:39:10;;;;;;;10.83;7.63;;;;;;;21.69;44.36;102199.66;5189824;28;20035;-82
2023/06/01 07:41:44;;;;;;;11.20;6.63;;;;;;;22.11;43.16;102211.22;5167651;28;20027;-82
2023/06/01 07:44:18;;;;;;;;;;;;;;;23.90;42.94;102214.69;5191682;28;20290;-82
2023/06/01 07:46:49;;;;;;;10.23;7.32;;;;;;;22.20;41.80;102186.38;5191933;28;20250;-82
2023/06/01 07:49:20;;;;;;;17.33;6.50;;;;;;;23.08;41.97;102194.59;5193898;28;20046;-82
2023/06/01 07:51:53;;;;;;;9.77;7.38;;;;;;;23.20;39.78;102185.44;5197365;28;20498;-82
2023/06/01 07:54:24;;;;;;;12.98;7.32;;;;;;;23.20;39.17;102195.28;5194799;28;20035;-82
2023/06/01 07:56:56;;;;;;;13.20;7.18;;;;;;;23.49;38.99;102196.25;5235181;28;20105;-83
2023/06/01 07:59:28;;;;;;;11.35;6.90;;;;;;;23.86;37.79;102176.69;5209237;28;20021;-81
2023/06/01 08:02:00;;;;;;;13.10;8.10;;;;;;;24.49;37.23;102210.88;5226093;28;20030;-82
2023/06/01 08:04:33;;;;;;;13.15;7.07;;;;;;;25.17;36.05;102229.25;5195873;28;20226;-81
2023/06/01 08:07:06;;;;;;;15.63;7.38;;;;;;;24.77;35.16;102208.97;5208918;28;20038;-81
2023/06/01 08:09:38;;;;;;;10.85;7.10;;;;;;;24.98;35.33;102201.63;5225045;28;20019;-82
2023/06/01 08:12:11;;;;;;;13.88;8.25;;;;;;;25.08;35.59;102213.06;5196976;28;20073;-82
2023/06/01 08:14:44;;;;;;;14.90;7.65;;;;;;;25.68;34.15;102201.75;5187098;28;20096;-82
2023/06/01 08:17:16;;;;;;;;;;;;;;;27.52;35.75;102218.97;5192756;28;20379;-83
2023/06/01 08:19:47;;;;;;;10.52;7.43;;;;;;;25.99;33.52;102185.09;5212222;28;19919;-83
2023/06/01 08:22:20;;;;;;;10.35;6.78;;;;;;;26.19;33.86;102187.53;5218162;28;20038;-83
2023/06/01 08:24:52;;;;;;;12.00;7.15;;;;;;;26.52;32.44;102214.47;5197744;28;20021;-83
2023/06/01 08:27:24;;;;;;;12.15;7.10;;;;;;;26.72;32.03;102207.94;5203295;28;20021;-83
2023/06/01 08:29:55;;;;;;;12.07;7.03;;;;;;;26.32;31.87;102201.31;5203355;28;20030;-83
2023/06/01 08:32:26;;;;;;;10.43;7.40;;;;;;;27.08;31.71;102202.25;5196425;28;20019;-83
2023/06/01 08:34:58;;;;;;;13.75;7.95;;;;;;;27.18;30.88;102180.56;5180810;28;20110;-82
2023/06/01 08:37:32;;;;;;;13.43;7.50;;;;;;;27.42;31.36;102224.56;5201633;28;20022;-82
2023/06/01 08:40:09;;;;;;;14.80;7.55;;;;;;;27.71;30.79;102204.31;5217160;28;20028;-83
2023/06/01 08:43:09;;;;;;;10.68;7.28;;;;;;;28.24;31.34;102194.81;5182657;28;20038;-83
2023/06/01 08:45:41;;;;;;;12.82;7.55;;;;;;;28.15;30.06;102199.41;5213259;28;20029;-83
2023/06/01 08:48:18;;;;;;;14.10;7.43;;;;;;;28.20;30.64;102191.63;5213788;28;21135;-83
2023/06/01 08:50:50;;;;;;;13.73;7.57;;;;;;;28.82;28.71;102177.38;5220394;28;20027;-83
2023/06/01 08:53:22;;;;;;;12.30;7.60;;;;;;;28.10;29.73;102186.44;5198201;28;20445;-83
2023/06/01 08:55:55;;;;;;;12.40;7.53;;;;;;;28.30;29.25;102191.38;5195958;28;20027;-83
2023/06/01 08:58:27;;;;;;;13.30;7.90;;;;;;;29.07;28.68;102182.56;5189970;28;20023;-83
2023/06/01 09:00:59;;;;;;;10.68;7.30;;;;;;;28.86;28.43;102192.16;5205718;28;20068;-83
2023/06/01 09:03:30;;;;;;;12.45;7.93;;;;;;;29.30;28.68;102197.84;5217524;28;20681;-83
2023/06/01 09:06:03;;;;;;;14.95;8.02;;;;;;;29.70;27.55;102206.53;5178598;28;20026;-83
2023/06/01 09:08:35;;;;;;;11.85;7.18;;;;;;;30.11;27.68;102177.28;5158559;28;20026;-84
2023/06/01 09:11:06;;;;;;;12.10;8.55;;;;;;;29.87;27.18;102197.38;5173169;28;20037;-83
2023/06/01 09:13:39;;;;;;;12.88;8.27;;;;;;;29.83;26.98;102153.72;5195153;28;20489;-83
2023/06/01 09:16:11;;;;;;;;;;;;;;;32.64;26.08;102202.94;5277279;28;20021;-83
2023/06/01 09:18:53;;;;;;;14.02;8.52;;;;;;;31.83;26.34;102180.00;5258810;28;19920;-84
2023/06/01 09:21:24;;;;;;;12.88;8.13;;;;;;;29.57;26.97;102168.53;5276818;28;20043;-84
2023/06/01 09:24:16;;;;;;;13.63;7.88;;;;;;;31.34;26.10;102163.75;5257172;28;20098;-83
2023/06/01 09:26:48;;;;;;;12.20;7.43;;;;;;;31.11;25.76;102172.97;5255861;28;20024;-83
2023/06/01 09:29:19;;;;;;;13.27;8.10;;;;;;;30.95;25.56;102146.25;5171407;28;20038;-84
2023/06/01 09:31:51;;;;;;;13.27;8.25;;;;;;;31.41;24.90;102168.38;5177316;28;20030;-84
2023/06/01 09:34:22;;;;;;;9.57;7.57;;;;;;;31.74;25.30;102144.16;5177887;28;20925;-83
2023/06/01 09:36:55;;;;;;;9.95;8.60;;;;;;;30.97;25.14;102138.75;5177207;28;20430;-84
2023/06/01 09:39:33;;;;;;;14.82;7.70;;;;;;;31.61;25.31;102149.53;5175571;28;20023;-83
2023/06/01 09:42:06;;;;;;;12.88;8.10;;;;;;;31.34;25.14;102135.84;5176515;28;20106;-84
2023/06/01 09:44:41;;;;;;;12.15;8.20;;;;;;;31.67;24.63;102134.31;5176815;28;20030;-83
2023/06/01 09:47:12;;;;;;;11.27;7.93;;;;;;;32.48;24.31;102156.19;5176888;28;20035;-83
2023/06/01 09:49:44;;;;;;;13.07;8.07;;;;;;;31.91;24.83;102132.13;5195752;28;20034;-83
2023/06/01 09:52:17;;;;;;;12.10;8.05;;;;;;;32.14;24.11;102144.47;5197442;28;20084;-83
2023/06/01 09:54:50;;;;;;;10.70;8.20;;;;;;;31.91;24.45;102157.31;5196310;28;20022;-84
2023/06/01 09:57:26;;;;;;;11.00;7.65;;;;;;;32.69;23.91;102133.44;5197451;28;20102;-83
2023/06/01 10:00:00;;;;;;;11.48;8.18;;;;;;;32.51;23.36;102128.66;5179461;28;20037;-83
2023/06/01 10:02:32;;;;;;;10.18;8.07;;;;;;;32.65;24.12;102134.94;5197000;28;20025;-83
2023/06/01 10:05:05;;;;;;;9.68;8.40;;;;;;;31.23;25.05;102143.50;5197478;28;20031;-83
2023/06/01 10:07:38;;;;;;;12.43;8.43;;;;;;;32.50;24.08;102137.84;5198254;28;20026;-83
2023/06/01 10:10:14;;;;;;;12.02;7.95;;;;;;;32.27;24.22;102125.53;5184589;28;20155;-84
2023/06/01 10:12:45;;;;;;;10.57;7.55;;;;;;;33.07;23.58;102158.22;5176217;28;20042;-83
2023/06/01 10:15:17;;;;;;;9.80;7.68;;;;;;;33.18;23.35;102156.75;5174543;28;20067;-83
2023/06/01 10:17:50;;;;;;;11.60;8.10;;;;;;;32.70;23.65;102131.56;5176620;28;20053;-84
2023/06/01 10:20:22;;;;;;;11.98;8.35;;;;;;;32.56;23.24;102123.47;5161171;28;20026;-84
2023/06/01 10:23:16;;;;;;;11.40;7.78;;;;;;;33.81;23.29;102140.81;5160929;28;20019;-84
2023/06/01 10:25:50;;;;;;;13.70;8.25;;;;;;;32.59;23.63;102139.31;5178995;28;20026;-83
2023/06/01 10:28:23;;;;;;;11.68;8.52;;;;;;;32.95;22.79;102150.75;5259475;28;20528;-84
2023/06/01 10:31:36;;;;;;;15.15;8.82;;;;;;;34.93;22.89;102156.69;5284684;28;20435;-84
2023/06/01 10:34:10;;;;;;;12.68;8.55;;;;;;;33.78;22.65;102144.81;5239972;28;20030;-84
2023/06/01 10:37:04;;;;;;;11.32;9.07;;;;;;;34.03;23.30;102152.19;5258498;28;20056;-83
2023/06/01 10:39:38;;;;;;;10.85;8.25;;;;;;;34.44;21.88;102118.47;5159497;28;20041;-84
2023/06/01 10:42:19;;;;;;;11.43;8.20;;;;;;;34.23;22.61;102126.78;5175388;28;20038;-84
2023/06/01 10:44:51;;;;;;;10.32;8.68;;;;;;;33.99;21.38;102121.06;5173790;28;20031;-85
2023/06/01 10:47:22;;;;;;;18.17;9.52;;;;;;;34.42;21.88;102145.88;5173834;28;20483;-85
2023/06/01 10:49:53;;;;;;;11.73;8.68;;;;;;;33.08;22.43;102155.28;5173005;28;20026;-84
2023/06/01 10:52:27;;;;;;;12.82;9.25;;;;;;;33.98;22.12;102135.72;5173219;28;20022;-84
2023/06/01 10:55:13;;;;;;;11.48;9.13;;;;;;;34.11;22.48;102139.38;5156689;28;20654;-85
2023/06/01 10:58:37;;;;;;;18.80;8.68;;;;;;;34.38;23.26;102150.09;5176014;28;20027;-86
2023/06/01 11:01:10;;;;;;;12.70;8.77;;;;;;;33.29;23.46;102139.81;5159779;28;20069;-88
2023/06/01 11:03:45;;;;;;;13.05;9.23;;;;;;;33.39;22.46;102130.38;5160200;28;20467;-89
2023/06/01 11:06:25;;;;;;;21.35;9.13;;;;;;;34.35;22.19;102140.47;5180747;28;20455;-87
2023/06/01 11:09:10;;;;;;;10.65;8.68;;;;;;;34.19;22.58;102130.16;5195920;28;20007;-87
2023/06/01 11:11:55;;;;;;;16.08;8.93;;;;;;;34.04;22.44;102145.69;5177712;28;20406;-88
2023/06/01 11:14:30;;;;;;;14.75;9.13;;;;;;;33.17;22.53;102100.81;5196128;28;20019;-88
2023/06/01 11:17:28;;;;;;;17.77;8.05;;;;;;;33.13;23.36;102134.88;5175334;28;20054;-88
2023/06/01 11:20:05;;;;;;;11.32;8.75;;;;;;;32.90;23.43;102119.88;5181601;28;20114;-88
2023/06/01 11:22:38;;;;;;;14.95;9.82;;;;;;;32.00;24.19;102120.06;5160282;28;20023;-88
2023/06/01 11:25:12;;;;;;;12.70;9.52;;;;;;;33.17;23.29;102100.81;5172556;28;20030;-88
2023/06/01 11:27:45;;;;;;;13.68;9.85;;;;;;;32.77;23.64;102116.13;5156741;28;20023;-87
2023/06/01 11:30:18;;;;;;;18.30;10.18;;;;;;;32.68;23.78;102076.72;5173253;28;20101;-87
2023/06/01 11:32:52;;;;;;;14.40;9.52;;;;;;;32.46;24.50;102090.50;5172201;28;20046;-88
2023/06/01 11:35:26;;;;;;;11.27;9.05;;;;;;;32.71;24.31;102101.53;5174216;28;20084;-89
2023/06/01 11:38:00;;;;;;;14.00;9.70;;;;;;;32.91;24.09;102078.13;5173276;28;20023;-89
2023/06/01 11:40:31;;;;;;;16.38;10.38;;;;;;;31.15;25.86;102085.00;5172655;28;20035;-87
2023/06/01 11:43:03;;;;;;;17.15;9.70;;;;;;;30.80;26.02;102106.59;5174034;28;20493;-88
2023/06/01 11:45:35;;;;;;;9.43;7.78;;;;;;;30.77;26.06;102125.94;5162488;28;20042;-89
2023/06/01 11:48:10;;;;;;;10.68;8.95;;;;;;;31.34;26.25;102081.72;5173563;28;20080;-88
2023/06/01 11:50:54;;;;;;;10.23;7.60;;;;;;;32.03;25.38;102080.91;5158322;28;20042;-89
2023/06/01 11:53:27;;;;;;;14.43;8.63;;;;;;;31.56;25.24;102087.03;5211956;28;20026;-90
2023/06/01 11:55:59;;;;;;;15.15;8.18;;;;;;;31.07;25.88;102105.97;5159596;28;20022;-90